sensor_id;sensor_type;location;lat;lon;timestamp;pressure;altitude;pressure_sealevel;temperature;humidity
35291;BME280;21411;50.024;19.220;2023-04-27T00:00:48;99101.59;;;3.39;89.87
35291;BME280;21411;50.024;19.220;2023-04-27T00:03:17;99097.14;;;3.40;89.74
35291;BME280;21411;50.024;19.220;2023-04-27T00:05:43;99096.68;;;3.43;89.62
35291;BME280;21411;50.024;19.220;2023-04-27T00:08:09;99100.10;;;3.46;89.48
35291;BME280;21411;50.024;19.220;2023-04-27T00:10:35;99097.55;;;3.48;89.37
35291;BME280;21411;50.024;19.220;2023-04-27T00:13:01;99094.09;;;3.52;89.30
35291;BME280;21411;50.024;19.220;2023-04-27T00:15:27;99095.06;;;3.54;89.41
35291;BME280;21411;50.024;19.220;2023-04-27T00:17:53;99094.05;;;3.58;89.47
35291;BME280;21411;50.024;19.220;2023-04-27T00:20:20;99090.26;;;3.61;89.60
35291;BME280;21411;50.024;19.220;2023-04-27T00:22:46;99094.13;;;3.65;89.74
35291;BME280;21411;50.024;19.220;2023-04-27T00:25:12;99092.25;;;3.69;89.67
35291;BME280;21411;50.024;19.220;2023-04-27T00:27:38;99094.42;;;3.71;89.72
35291;BME280;21411;50.024;19.220;2023-04-27T00:30:04;99095.09;;;3.72;89.80
35291;BME280;21411;50.024;19.220;2023-04-27T00:32:31;99092.23;;;3.74;89.97
35291;BME280;21411;50.024;19.220;2023-04-27T00:34:57;99092.34;;;3.76;90.24
35291;BME280;21411;50.024;19.220;2023-04-27T00:37:23;99089.98;;;3.78;90.93
35291;BME280;21411;50.024;19.220;2023-04-27T00:39:49;99087.17;;;3.78;90.86
35291;BME280;21411;50.024;19.220;2023-04-27T00:42:15;99087.16;;;3.78;91.25
35291;BME280;21411;50.024;19.220;2023-04-27T00:44:46;99089.48;;;3.77;91.23
35291;BME280;21411;50.024;19.220;2023-04-27T00:47:14;99089.15;;;3.76;91.47
35291;BME280;21411;50.024;19.220;2023-04-27T00:49:40;99088.71;;;3.74;91.73
35291;BME280;21411;50.024;19.220;2023-04-27T00:52:06;99088.84;;;3.71;91.99
35291;BME280;21411;50.024;19.220;2023-04-27T00:54:32;99092.64;;;3.67;92.28
35291;BME280;21411;50.024;19.220;2023-04-27T00:56:58;99092.11;;;3.63;92.44
35291;BME280;21411;50.024;19.220;2023-04-27T00:59:24;99092.95;;;3.59;92.63
35291;BME280;21411;50.024;19.220;2023-04-27T01:01:52;99097.13;;;3.56;92.96
35291;BME280;21411;50.024;19.220;2023-04-27T01:04:18;99099.61;;;3.50;92.90
35291;BME280;21411;50.024;19.220;2023-04-27T01:06:44;99099.27;;;3.45;92.97
35291;BME280;21411;50.024;19.220;2023-04-27T01:09:10;99103.10;;;3.41;92.97
35291;BME280;21411;50.024;19.220;2023-04-27T01:11:36;99104.35;;;3.36;93.34
35291;BME280;21411;50.024;19.220;2023-04-27T01:14:04;99106.70;;;3.28;94.01
35291;BME280;21411;50.024;19.220;2023-04-27T01:16:32;99107.26;;;3.23;94.27
35291;BME280;21411;50.024;19.220;2023-04-27T01:18:58;99105.21;;;3.16;94.70
35291;BME280;21411;50.024;19.220;2023-04-27T01:21:24;99108.08;;;3.09;95.27
35291;BME280;21411;50.024;19.220;2023-04-27T01:23:51;99108.67;;;3.02;95.92
35291;BME280;21411;50.024;19.220;2023-04-27T01:26:17;99108.05;;;2.95;96.47
35291;BME280;21411;50.024;19.220;2023-04-27T01:28:43;99109.02;;;2.87;96.78
35291;BME280;21411;50.024;19.220;2023-04-27T01:31:10;99115.25;;;2.79;97.15
35291;BME280;21411;50.024;19.220;2023-04-27T01:33:37;99121.98;;;2.72;97.87
35291;BME280;21411;50.024;19.220;2023-04-27T01:36:03;99119.06;;;2.64;98.20
35291;BME280;21411;50.024;19.220;2023-04-27T01:38:31;99119.05;;;2.59;98.52
35291;BME280;21411;50.024;19.220;2023-04-27T01:40:57;99122.34;;;2.55;98.95
35291;BME280;21411;50.024;19.220;2023-04-27T01:43:28;99121.96;;;2.51;99.71
35291;BME280;21411;50.024;19.220;2023-04-27T01:45:54;99126.50;;;2.46;100.00
35291;BME280;21411;50.024;19.220;2023-04-27T01:48:21;99126.98;;;2.42;100.00
35291;BME280;21411;50.024;19.220;2023-04-27T01:50:47;99128.81;;;2.39;100.00
35291;BME280;21411;50.024;19.220;2023-04-27T01:53:13;99126.45;;;2.36;100.00
35291;BME280;21411;50.024;19.220;2023-04-27T01:55:39;99128.45;;;2.35;100.00
35291;BME280;21411;50.024;19.220;2023-04-27T01:58:04;99125.67;;;2.33;100.00
35291;BME280;21411;50.024;19.220;2023-04-27T02:00:56;99126.29;;;2.31;100.00
35291;BME280;21411;50.024;19.220;2023-04-27T02:03:22;99129.00;;;2.28;100.00
35291;BME280;21411;50.024;19.220;2023-04-27T02:05:48;99126.45;;;2.25;100.00
35291;BME280;21411;50.024;19.220;2023-04-27T02:08:14;99127.92;;;2.23;100.00
35291;BME280;21411;50.024;19.220;2023-04-27T02:10:40;99131.17;;;2.20;100.00
35291;BME280;21411;50.024;19.220;2023-04-27T02:13:06;99129.33;;;2.17;100.00
35291;BME280;21411;50.024;19.220;2023-04-27T02:15:33;99128.70;;;2.14;100.00
35291;BME280;21411;50.024;19.220;2023-04-27T02:18:00;99127.77;;;2.11;100.00
35291;BME280;21411;50.024;19.220;2023-04-27T02:20:28;99128.56;;;2.08;100.00
35291;BME280;21411;50.024;19.220;2023-04-27T02:22:55;99130.39;;;2.06;100.00
35291;BME280;21411;50.024;19.220;2023-04-27T02:25:21;99127.86;;;2.02;100.00
35291;BME280;21411;50.024;19.220;2023-04-27T02:27:47;99127.11;;;1.98;100.00
35291;BME280;21411;50.024;19.220;2023-04-27T02:30:14;99127.91;;;1.94;100.00
35291;BME280;21411;50.024;19.220;2023-04-27T02:32:40;99130.89;;;1.89;100.00
35291;BME280;21411;50.024;19.220;2023-04-27T02:35:07;99132.02;;;1.85;100.00
35291;BME280;21411;50.024;19.220;2023-04-27T02:37:34;99134.07;;;1.82;100.00
35291;BME280;21411;50.024;19.220;2023-04-27T02:40:00;99136.21;;;1.81;100.00
35291;BME280;21411;50.024;19.220;2023-04-27T02:42:26;99138.02;;;1.79;100.00
35291;BME280;21411;50.024;19.220;2023-04-27T02:44:53;99139.33;;;1.76;100.00
35291;BME280;21411;50.024;19.220;2023-04-27T02:47:19;99137.11;;;1.73;100.00
35291;BME280;21411;50.024;19.220;2023-04-27T02:49:45;99133.84;;;1.71;100.00
35291;BME280;21411;50.024;19.220;2023-04-27T02:52:11;99137.94;;;1.69;100.00
35291;BME280;21411;50.024;19.220;2023-04-27T02:54:37;99133.11;;;1.66;100.00
35291;BME280;21411;50.024;19.220;2023-04-27T02:57:03;99135.44;;;1.64;100.00
35291;BME280;21411;50.024;19.220;2023-04-27T02:59:30;99139.73;;;1.62;100.00
35291;BME280;21411;50.024;19.220;2023-04-27T03:01:55;99136.31;;;1.59;100.00
35291;BME280;21411;50.024;19.220;2023-04-27T03:04:21;99136.92;;;1.55;100.00
35291;BME280;21411;50.024;19.220;2023-04-27T03:06:48;99140.34;;;1.52;100.00
35291;BME280;21411;50.024;19.220;2023-04-27T03:09:13;99140.75;;;1.50;100.00
35291;BME280;21411;50.024;19.220;2023-04-27T03:11:40;99143.83;;;1.46;100.00
35291;BME280;21411;50.024;19.220;2023-04-27T03:14:06;99141.45;;;1.44;100.00
35291;BME280;21411;50.024;19.220;2023-04-27T03:16:32;99142.89;;;1.42;100.00
35291;BME280;21411;50.024;19.220;2023-04-27T03:18:59;99143.29;;;1.41;100.00
35291;BME280;21411;50.024;19.220;2023-04-27T03:21:25;99148.39;;;1.40;100.00
35291;BME280;21411;50.024;19.220;2023-04-27T03:23:54;99148.60;;;1.38;100.00
35291;BME280;21411;50.024;19.220;2023-04-27T03:26:20;99148.29;;;1.37;100.00
35291;BME280;21411;50.024;19.220;2023-04-27T03:28:46;99151.61;;;1.37;100.00
35291;BME280;21411;50.024;19.220;2023-04-27T03:31:13;99156.89;;;1.36;100.00
35291;BME280;21411;50.024;19.220;2023-04-27T03:33:40;99159.55;;;1.34;100.00
35291;BME280;21411;50.024;19.220;2023-04-27T03:36:07;99163.92;;;1.35;100.00
35291;BME280;21411;50.024;19.220;2023-04-27T03:38:34;99165.30;;;1.36;100.00
35291;BME280;21411;50.024;19.220;2023-04-27T03:41:01;99165.76;;;1.38;100.00
35291;BME280;21411;50.024;19.220;2023-04-27T03:43:27;99166.02;;;1.41;100.00
35291;BME280;21411;50.024;19.220;2023-04-27T03:45:53;99168.19;;;1.45;100.00
35291;BME280;21411;50.024;19.220;2023-04-27T03:48:20;99171.16;;;1.52;100.00
35291;BME280;21411;50.024;19.220;2023-04-27T03:50:46;99174.63;;;1.60;100.00
35291;BME280;21411;50.024;19.220;2023-04-27T03:53:12;99176.66;;;1.68;100.00
35291;BME280;21411;50.024;19.220;2023-04-27T03:55:40;99176.94;;;1.77;100.00
35291;BME280;21411;50.024;19.220;2023-04-27T03:58:07;99176.49;;;1.87;100.00
35291;BME280;21411;50.024;19.220;2023-04-27T04:00:35;99177.02;;;1.99;100.00
35291;BME280;21411;50.024;19.220;2023-04-27T04:03:03;99183.32;;;2.11;100.00
35291;BME280;21411;50.024;19.220;2023-04-27T04:05:29;99188.18;;;2.24;100.00
35291;BME280;21411;50.024;19.220;2023-04-27T04:07:56;99186.58;;;2.37;100.00
35291;BME280;21411;50.024;19.220;2023-04-27T04:10:23;99181.83;;;2.48;100.00
35291;BME280;21411;50.024;19.220;2023-04-27T04:12:53;99178.48;;;2.60;100.00
35291;BME280;21411;50.024;19.220;2023-04-27T04:15:18;99181.77;;;2.73;100.00
35291;BME280;21411;50.024;19.220;2023-04-27T04:17:45;99186.48;;;2.85;100.00
35291;BME280;21411;50.024;19.220;2023-04-27T04:20:12;99184.14;;;2.97;100.00
35291;BME280;21411;50.024;19.220;2023-04-27T04:22:38;99182.80;;;3.31;100.00
35291;BME280;21411;50.024;19.220;2023-04-27T04:25:06;99184.02;;;3.62;100.00
35291;BME280;21411;50.024;19.220;2023-04-27T04:27:32;99184.32;;;3.78;100.00
35291;BME280;21411;50.024;19.220;2023-04-27T04:29:58;99182.73;;;4.26;100.00
35291;BME280;21411;50.024;19.220;2023-04-27T04:32:25;99183.83;;;4.95;100.00
35291;BME280;21411;50.024;19.220;2023-04-27T04:34:56;99186.61;;;5.39;100.00
35291;BME280;21411;50.024;19.220;2023-04-27T04:37:26;99190.42;;;5.76;100.00
35291;BME280;21411;50.024;19.220;2023-04-27T04:39:53;99188.91;;;6.34;99.80
35291;BME280;21411;50.024;19.220;2023-04-27T04:42:18;99189.55;;;7.13;96.86
35291;BME280;21411;50.024;19.220;2023-04-27T04:44:45;99183.61;;;7.94;93.19
35291;BME280;21411;50.024;19.220;2023-04-27T04:47:11;99183.96;;;8.53;90.31
35291;BME280;21411;50.024;19.220;2023-04-27T04:49:37;99186.64;;;8.97;87.29
35291;BME280;21411;50.024;19.220;2023-04-27T04:52:03;99187.64;;;8.73;87.00
35291;BME280;21411;50.024;19.220;2023-04-27T04:54:30;99192.14;;;8.46;86.88
35291;BME280;21411;50.024;19.220;2023-04-27T04:56:55;99197.52;;;8.28;86.20
35291;BME280;21411;50.024;19.220;2023-04-27T04:59:23;99198.60;;;8.31;85.35
35291;BME280;21411;50.024;19.220;2023-04-27T05:01:49;99199.75;;;8.47;83.97
35291;BME280;21411;50.024;19.220;2023-04-27T05:04:15;99201.24;;;8.64;82.49
35291;BME280;21411;50.024;19.220;2023-04-27T05:06:43;99196.71;;;8.69;81.95
35291;BME280;21411;50.024;19.220;2023-04-27T05:09:09;99196.10;;;8.90;81.20
35291;BME280;21411;50.024;19.220;2023-04-27T05:11:35;99200.98;;;8.91;80.57
35291;BME280;21411;50.024;19.220;2023-04-27T05:14:01;99205.02;;;8.92;80.36
35291;BME280;21411;50.024;19.220;2023-04-27T05:16:27;99204.58;;;9.12;79.01
35291;BME280;21411;50.024;19.220;2023-04-27T05:18:53;99207.95;;;9.09;78.97
35291;BME280;21411;50.024;19.220;2023-04-27T05:21:19;99211.64;;;8.94;78.40
35291;BME280;21411;50.024;19.220;2023-04-27T05:23:48;99215.30;;;8.76;78.24
35291;BME280;21411;50.024;19.220;2023-04-27T05:26:15;99218.02;;;8.88;78.09
35291;BME280;21411;50.024;19.220;2023-04-27T05:28:42;99216.66;;;9.02;77.67
35291;BME280;21411;50.024;19.220;2023-04-27T05:31:07;99218.90;;;8.97;77.31
35291;BME280;21411;50.024;19.220;2023-04-27T05:33:33;99223.02;;;8.87;77.70
35291;BME280;21411;50.024;19.220;2023-04-27T05:36:00;99222.33;;;8.86;78.03
35291;BME280;21411;50.024;19.220;2023-04-27T05:38:26;99228.75;;;8.83;77.72
35291;BME280;21411;50.024;19.220;2023-04-27T05:40:57;99229.28;;;8.73;77.86
35291;BME280;21411;50.024;19.220;2023-04-27T05:43:24;99233.79;;;8.71;78.23
35291;BME280;21411;50.024;19.220;2023-04-27T05:45:51;99234.22;;;8.70;78.04
35291;BME280;21411;50.024;19.220;2023-04-27T05:48:18;99237.16;;;8.68;77.84
35291;BME280;21411;50.024;19.220;2023-04-27T05:50:44;99241.02;;;8.69;77.58
35291;BME280;21411;50.024;19.220;2023-04-27T05:53:10;99240.98;;;8.73;77.45
35291;BME280;21411;50.024;19.220;2023-04-27T05:55:36;99240.21;;;8.74;77.36
35291;BME280;21411;50.024;19.220;2023-04-27T05:58:03;99236.34;;;8.73;76.94
35291;BME280;21411;50.024;19.220;2023-04-27T06:00:30;99238.56;;;8.78;76.69
35291;BME280;21411;50.024;19.220;2023-04-27T06:02:56;99237.10;;;8.82;76.28
35291;BME280;21411;50.024;19.220;2023-04-27T06:05:22;99241.45;;;8.87;76.03
35291;BME280;21411;50.024;19.220;2023-04-27T06:07:48;99241.21;;;8.91;76.00
35291;BME280;21411;50.024;19.220;2023-04-27T06:10:14;99238.97;;;8.96;76.16
35291;BME280;21411;50.024;19.220;2023-04-27T06:12:41;99235.61;;;9.08;76.06
35291;BME280;21411;50.024;19.220;2023-04-27T06:15:08;99235.38;;;9.22;75.59
35291;BME280;21411;50.024;19.220;2023-04-27T06:17:35;99236.70;;;9.36;74.78
35291;BME280;21411;50.024;19.220;2023-04-27T06:20:01;99241.16;;;9.63;74.57
35291;BME280;21411;50.024;19.220;2023-04-27T06:22:34;99243.53;;;10.03;73.60
35291;BME280;21411;50.024;19.220;2023-04-27T06:25:04;99243.10;;;10.25;72.95
35291;BME280;21411;50.024;19.220;2023-04-27T06:27:32;99241.04;;;10.44;72.39
35291;BME280;21411;50.024;19.220;2023-04-27T06:29:59;99242.66;;;10.72;71.67
35291;BME280;21411;50.024;19.220;2023-04-27T06:32:25;99241.55;;;10.84;70.68
35291;BME280;21411;50.024;19.220;2023-04-27T06:34:51;99249.30;;;10.74;70.28
35291;BME280;21411;50.024;19.220;2023-04-27T06:37:17;99253.55;;;10.63;70.57
35291;BME280;21411;50.024;19.220;2023-04-27T06:39:43;99251.17;;;10.58;70.62
35291;BME280;21411;50.024;19.220;2023-04-27T06:42:09;99255.06;;;10.81;69.77
35291;BME280;21411;50.024;19.220;2023-04-27T06:44:37;99255.50;;;11.18;69.11
35291;BME280;21411;50.024;19.220;2023-04-27T06:47:03;99254.36;;;11.55;67.49
35291;BME280;21411;50.024;19.220;2023-04-27T06:49:28;99250.33;;;11.80;67.39
35291;BME280;21411;50.024;19.220;2023-04-27T06:51:55;99251.42;;;11.99;66.83
35291;BME280;21411;50.024;19.220;2023-04-27T06:54:20;99249.27;;;12.09;66.33
35291;BME280;21411;50.024;19.220;2023-04-27T06:56:46;99253.65;;;12.02;65.96
35291;BME280;21411;50.024;19.220;2023-04-27T06:59:13;99253.80;;;11.90;65.29
35291;BME280;21411;50.024;19.220;2023-04-27T07:01:39;99251.91;;;11.73;64.18
35291;BME280;21411;50.024;19.220;2023-04-27T07:04:05;99251.73;;;11.49;63.73
35291;BME280;21411;50.024;19.220;2023-04-27T07:06:31;99252.13;;;11.10;62.65
35291;BME280;21411;50.024;19.220;2023-04-27T07:08:58;99259.73;;;10.92;64.02
35291;BME280;21411;50.024;19.220;2023-04-27T07:11:24;99262.91;;;10.97;63.98
35291;BME280;21411;50.024;19.220;2023-04-27T07:13:51;99264.45;;;10.98;63.54
35291;BME280;21411;50.024;19.220;2023-04-27T07:16:18;99267.81;;;10.93;64.11
35291;BME280;21411;50.024;19.220;2023-04-27T07:18:44;99268.52;;;10.88;64.30
35291;BME280;21411;50.024;19.220;2023-04-27T07:21:10;99270.79;;;10.77;63.46
35291;BME280;21411;50.024;19.220;2023-04-27T07:23:37;99274.06;;;10.64;63.93
35291;BME280;21411;50.024;19.220;2023-04-27T07:26:04;99269.70;;;10.63;64.39
35291;BME280;21411;50.024;19.220;2023-04-27T07:28:31;99267.68;;;10.73;64.34
35291;BME280;21411;50.024;19.220;2023-04-27T07:30:57;99267.39;;;10.83;64.55
35291;BME280;21411;50.024;19.220;2023-04-27T07:33:23;99264.89;;;10.97;64.62
35291;BME280;21411;50.024;19.220;2023-04-27T07:35:49;99262.09;;;10.99;64.19
35291;BME280;21411;50.024;19.220;2023-04-27T07:38:16;99259.91;;;11.08;64.57
35291;BME280;21411;50.024;19.220;2023-04-27T07:40:42;99257.05;;;11.28;64.58
35291;BME280;21411;50.024;19.220;2023-04-27T07:43:08;99255.15;;;11.51;64.21
35291;BME280;21411;50.024;19.220;2023-04-27T07:45:34;99248.25;;;11.82;63.96
35291;BME280;21411;50.024;19.220;2023-04-27T07:48:04;99249.70;;;12.11;60.85
35291;BME280;21411;50.024;19.220;2023-04-27T07:50:30;99248.40;;;12.14;56.59
35291;BME280;21411;50.024;19.220;2023-04-27T07:52:56;99244.51;;;12.26;57.26
35291;BME280;21411;50.024;19.220;2023-04-27T07:55:24;99241.73;;;12.53;57.09
35291;BME280;21411;50.024;19.220;2023-04-27T07:57:52;99245.23;;;12.67;57.28
35291;BME280;21411;50.024;19.220;2023-04-27T08:00:18;99245.45;;;12.71;57.53
35291;BME280;21411;50.024;19.220;2023-04-27T08:02:44;99244.55;;;12.64;57.22
35291;BME280;21411;50.024;19.220;2023-04-27T08:05:11;99248.10;;;12.59;57.28
35291;BME280;21411;50.024;19.220;2023-04-27T08:07:38;99248.52;;;12.53;56.53
35291;BME280;21411;50.024;19.220;2023-04-27T08:10:05;99243.05;;;12.45;56.20
35291;BME280;21411;50.024;19.220;2023-04-27T08:12:33;99247.17;;;12.37;54.66
35291;BME280;21411;50.024;19.220;2023-04-27T08:14:59;99245.30;;;12.43;55.17
35291;BME280;21411;50.024;19.220;2023-04-27T08:17:25;99246.30;;;12.76;54.82
35291;BME280;21411;50.024;19.220;2023-04-27T08:19:52;99242.86;;;13.07;54.57
35291;BME280;21411;50.024;19.220;2023-04-27T08:22:18;99241.58;;;13.37;54.86
35291;BME280;21411;50.024;19.220;2023-04-27T08:24:44;99241.33;;;13.47;54.01
35291;BME280;21411;50.024;19.220;2023-04-27T08:27:10;99237.37;;;13.33;53.70
35291;BME280;21411;50.024;19.220;2023-04-27T08:29:36;99242.94;;;13.11;53.47
35291;BME280;21411;50.024;19.220;2023-04-27T08:32:03;99244.66;;;12.62;50.79
35291;BME280;21411;50.024;19.220;2023-04-27T08:34:30;99251.10;;;12.06;51.86
35291;BME280;21411;50.024;19.220;2023-04-27T08:36:56;99254.79;;;11.64;52.76
35291;BME280;21411;50.024;19.220;2023-04-27T08:39:23;99258.90;;;11.40;53.42
35291;BME280;21411;50.024;19.220;2023-04-27T08:41:50;99263.52;;;11.27;53.18
35291;BME280;21411;50.024;19.220;2023-04-27T08:44:16;99258.83;;;11.11;53.20
35291;BME280;21411;50.024;19.220;2023-04-27T08:46:42;99265.05;;;10.92;53.85
35291;BME280;21411;50.024;19.220;2023-04-27T08:49:08;99266.55;;;10.82;54.69
35291;BME280;21411;50.024;19.220;2023-04-27T08:51:34;99271.77;;;10.75;55.23
35291;BME280;21411;50.024;19.220;2023-04-27T08:54:00;99277.52;;;10.69;56.05
35291;BME280;21411;50.024;19.220;2023-04-27T08:56:28;99278.66;;;10.68;56.37
35291;BME280;21411;50.024;19.220;2023-04-27T08:58:55;99279.41;;;10.67;56.57
35291;BME280;21411;50.024;19.220;2023-04-27T09:01:23;99276.18;;;10.65;56.79
35291;BME280;21411;50.024;19.220;2023-04-27T09:04:00;99280.76;;;10.63;56.47
35291;BME280;21411;50.024;19.220;2023-04-27T09:06:33;99278.62;;;10.54;56.75
35291;BME280;21411;50.024;19.220;2023-04-27T09:09:00;99281.51;;;10.45;56.72
35291;BME280;21411;50.024;19.220;2023-04-27T09:11:31;99281.17;;;10.30;57.20
35291;BME280;21411;50.024;19.220;2023-04-27T09:14:00;99283.46;;;10.18;57.55
35291;BME280;21411;50.024;19.220;2023-04-27T09:16:28;99284.34;;;10.09;58.04
35291;BME280;21411;50.024;19.220;2023-04-27T09:18:56;99289.15;;;10.03;58.59
35291;BME280;21411;50.024;19.220;2023-04-27T09:21:26;99289.45;;;9.92;58.25
35291;BME280;21411;50.024;19.220;2023-04-27T09:23:53;99287.30;;;9.78;58.73
35291;BME280;21411;50.024;19.220;2023-04-27T09:26:23;99285.00;;;9.75;59.13
35291;BME280;21411;50.024;19.220;2023-04-27T09:28:52;99281.73;;;9.82;59.27
35291;BME280;21411;50.024;19.220;2023-04-27T09:41:57;99269.77;;;10.68;59.09
35291;BME280;21411;50.024;19.220;2023-04-27T09:44:25;99262.20;;;11.38;58.46
35291;BME280;21411;50.024;19.220;2023-04-27T09:46:54;99259.92;;;12.15;58.16
35291;BME280;21411;50.024;19.220;2023-04-27T09:49:25;99260.70;;;12.82;57.26
35291;BME280;21411;50.024;19.220;2023-04-27T09:51:52;99254.17;;;13.28;55.29
35291;BME280;21411;50.024;19.220;2023-04-27T09:54:25;99255.91;;;13.53;53.85
35291;BME280;21411;50.024;19.220;2023-04-27T10:08:04;99253.06;;;13.79;51.71
35291;BME280;21411;50.024;19.220;2023-04-27T10:10:47;99256.23;;;13.77;50.96
35291;BME280;21411;50.024;19.220;2023-04-27T10:16:56;99257.79;;;13.25;50.40
35291;BME280;21411;50.024;19.220;2023-04-27T10:19:24;99260.44;;;13.13;50.07
35291;BME280;21411;50.024;19.220;2023-04-27T10:21:59;99261.40;;;13.02;49.85
35291;BME280;21411;50.024;19.220;2023-04-27T10:24:38;99262.18;;;12.91;49.99
35291;BME280;21411;50.024;19.220;2023-04-27T10:27:06;99259.98;;;12.90;50.10
35291;BME280;21411;50.024;19.220;2023-04-27T10:29:35;99253.52;;;12.88;49.64
35291;BME280;21411;50.024;19.220;2023-04-27T10:32:23;99251.35;;;12.86;49.74
35291;BME280;21411;50.024;19.220;2023-04-27T10:34:51;99244.29;;;13.12;49.86
35291;BME280;21411;50.024;19.220;2023-04-27T10:37:18;99238.09;;;13.55;49.64
35291;BME280;21411;50.024;19.220;2023-04-27T10:39:50;99240.70;;;13.98;49.98
35291;BME280;21411;50.024;19.220;2023-04-27T10:42:25;99240.64;;;14.24;47.97
35291;BME280;21411;50.024;19.220;2023-04-27T10:44:56;99242.62;;;14.26;47.51
35291;BME280;21411;50.024;19.220;2023-04-27T10:47:23;99246.16;;;14.17;47.27
35291;BME280;21411;50.024;19.220;2023-04-27T10:50:01;99249.71;;;14.13;47.69
35291;BME280;21411;50.024;19.220;2023-04-27T10:52:29;99247.84;;;14.21;47.40
35291;BME280;21411;50.024;19.220;2023-04-27T10:54:56;99251.84;;;14.11;47.08
35291;BME280;21411;50.024;19.220;2023-04-27T10:57:22;99252.10;;;13.87;46.72
35291;BME280;21411;50.024;19.220;2023-04-27T10:59:51;99254.15;;;13.67;46.74
35291;BME280;21411;50.024;19.220;2023-04-27T11:02:27;99259.21;;;13.49;47.35
35291;BME280;21411;50.024;19.220;2023-04-27T11:04:55;99261.07;;;13.26;46.89
35291;BME280;21411;50.024;19.220;2023-04-27T11:07:25;99261.79;;;13.02;46.94
35291;BME280;21411;50.024;19.220;2023-04-27T11:09:53;99265.08;;;12.88;46.87
35291;BME280;21411;50.024;19.220;2023-04-27T11:12:20;99263.48;;;12.68;46.73
35291;BME280;21411;50.024;19.220;2023-04-27T11:14:46;99263.44;;;12.54;46.82
35291;BME280;21411;50.024;19.220;2023-04-27T11:17:13;99264.38;;;12.55;46.99
35291;BME280;21411;50.024;19.220;2023-04-27T11:19:46;99264.92;;;12.68;46.41
35291;BME280;21411;50.024;19.220;2023-04-27T11:22:15;99264.16;;;12.81;46.37
35291;BME280;21411;50.024;19.220;2023-04-27T11:24:48;99259.44;;;13.02;46.52
35291;BME280;21411;50.024;19.220;2023-04-27T11:27:16;99253.83;;;13.33;47.00
35291;BME280;21411;50.024;19.220;2023-04-27T11:29:43;99256.02;;;13.64;45.79
35291;BME280;21411;50.024;19.220;2023-04-27T11:32:20;99249.73;;;13.83;46.03
35291;BME280;21411;50.024;19.220;2023-04-27T11:34:56;99252.38;;;14.07;45.91
35291;BME280;21411;50.024;19.220;2023-04-27T11:37:24;99243.61;;;14.32;45.72
35291;BME280;21411;50.024;19.220;2023-04-27T11:39:53;99246.85;;;14.59;44.98
35291;BME280;21411;50.024;19.220;2023-04-27T11:42:22;99245.65;;;14.61;42.40
35291;BME280;21411;50.024;19.220;2023-04-27T11:47:19;99239.41;;;14.83;43.40
35291;BME280;21411;50.024;19.220;2023-04-27T11:49:48;99234.41;;;15.11;43.71
35291;BME280;21411;50.024;19.220;2023-04-27T11:52:15;99237.52;;;15.21;42.74
35291;BME280;21411;50.024;19.220;2023-04-27T11:54:49;99236.30;;;15.17;42.37
35291;BME280;21411;50.024;19.220;2023-04-27T11:57:17;99233.69;;;15.16;42.99
35291;BME280;21411;50.024;19.220;2023-04-27T11:59:44;99234.48;;;15.06;42.89
35291;BME280;21411;50.024;19.220;2023-04-27T12:02:11;99242.48;;;14.80;41.95
35291;BME280;21411;50.024;19.220;2023-04-27T12:04:38;99244.92;;;14.38;42.11
35291;BME280;21411;50.024;19.220;2023-04-27T12:07:05;99244.14;;;13.97;41.78
35291;BME280;21411;50.024;19.220;2023-04-27T12:09:32;99249.36;;;13.57;42.53
35291;BME280;21411;50.024;19.220;2023-04-27T12:11:58;99251.27;;;13.31;43.13
35291;BME280;21411;50.024;19.220;2023-04-27T12:14:25;99258.21;;;13.02;43.59
35291;BME280;21411;50.024;19.220;2023-04-27T12:16:51;99258.17;;;12.83;44.05
35291;BME280;21411;50.024;19.220;2023-04-27T12:19:18;99261.90;;;12.65;44.66
35291;BME280;21411;50.024;19.220;2023-04-27T12:21:44;99261.45;;;12.59;45.71
35291;BME280;21411;50.024;19.220;2023-04-27T12:24:11;99265.67;;;12.65;45.76
35291;BME280;21411;50.024;19.220;2023-04-27T12:26:38;99263.61;;;12.69;45.73
35291;BME280;21411;50.024;19.220;2023-04-27T12:29:05;99262.48;;;12.72;45.34
35291;BME280;21411;50.024;19.220;2023-04-27T12:31:32;99267.20;;;12.66;45.03
35291;BME280;21411;50.024;19.220;2023-04-27T12:33:59;99263.16;;;12.63;45.28
35291;BME280;21411;50.024;19.220;2023-04-27T12:36:25;99258.42;;;12.69;45.61
35291;BME280;21411;50.024;19.220;2023-04-27T12:38:57;99256.23;;;12.85;45.71
35291;BME280;21411;50.024;19.220;2023-04-27T12:41:25;99258.73;;;13.04;45.35
35291;BME280;21411;50.024;19.220;2023-04-27T12:43:51;99252.76;;;13.20;44.80
35291;BME280;21411;50.024;19.220;2023-04-27T12:46:18;99249.74;;;13.49;45.16
35291;BME280;21411;50.024;19.220;2023-04-27T12:48:44;99247.73;;;13.76;45.39
35291;BME280;21411;50.024;19.220;2023-04-27T12:51:11;99243.94;;;13.95;45.19
35291;BME280;21411;50.024;19.220;2023-04-27T12:53:38;99240.98;;;14.08;44.86
35291;BME280;21411;50.024;19.220;2023-04-27T12:56:05;99241.32;;;14.27;44.66
35291;BME280;21411;50.024;19.220;2023-04-27T12:58:31;99238.11;;;14.29;43.88
35291;BME280;21411;50.024;19.220;2023-04-27T13:00:58;99235.83;;;14.19;43.26
35291;BME280;21411;50.024;19.220;2023-04-27T13:03:24;99234.73;;;14.15;43.29
35291;BME280;21411;50.024;19.220;2023-04-27T13:05:51;99239.11;;;13.91;42.66
35291;BME280;21411;50.024;19.220;2023-04-27T13:08:17;99239.92;;;13.78;42.85
35291;BME280;21411;50.024;19.220;2023-04-27T13:10:44;99240.65;;;13.75;42.67
35291;BME280;21411;50.024;19.220;2023-04-27T13:13:10;99242.30;;;13.63;42.01
35291;BME280;21411;50.024;19.220;2023-04-27T13:15:37;99237.70;;;13.55;41.58
35291;BME280;21411;50.024;19.220;2023-04-27T13:18:03;99239.95;;;13.42;41.09
35291;BME280;21411;50.024;19.220;2023-04-27T13:20:31;99240.63;;;13.23;41.09